createdAt,value
2022-08-20T00:01:11.612Z,23.38
2022-08-20T00:06:17.568Z,19.33
2022-08-20T00:11:26.190Z,28.20
2022-08-20T00:16:35.043Z,27.25
2022-08-20T00:21:37.839Z,29.50
2022-08-20T00:26:52.809Z,25.05
2022-08-20T00:31:55.085Z,23.55
2022-08-20T00:36:57.308Z,23.67
2022-08-20T00:41:59.796Z,25.33
2022-08-20T00:47:02.366Z,23.10
2022-08-20T00:52:12.735Z,24.70
2022-08-20T00:57:43.794Z,28.58
2022-08-20T01:02:52.897Z,23.75
2022-08-20T01:07:56.062Z,25.67
2022-08-20T01:12:59.951Z,20.77
2022-08-20T01:18:02.770Z,24.50
2022-08-20T01:23:32.647Z,21.05
2022-08-20T01:28:43.857Z,16.42
2022-08-20T01:33:46.988Z,21.50
2022-08-20T01:38:54.150Z,20.83
2022-08-20T01:43:58.832Z,19.80
2022-08-20T01:49:13.635Z,21.52
2022-08-20T01:54:19.572Z,22.90
2022-08-20T01:59:22.183Z,19.83
2022-08-20T02:04:24.534Z,17.27
2022-08-20T02:09:30.143Z,19.67
2022-08-20T02:14:33.285Z,19.63
2022-08-20T02:19:39.456Z,18.02
2022-08-20T02:24:41.566Z,14.70
2022-08-20T02:29:43.788Z,18.40
2022-08-20T02:34:45.971Z,15.75
2022-08-20T02:39:48.139Z,14.38
2022-08-20T02:44:50.303Z,18.70
2022-08-20T02:49:52.714Z,18.42
2022-08-20T02:54:54.872Z,17.67
2022-08-20T02:59:57.083Z,18.88
2022-08-20T03:04:59.217Z,21.55
2022-08-20T03:10:02.008Z,24.77
2022-08-20T03:15:08.227Z,24.55
2022-08-20T03:20:23.883Z,30.27
2022-08-20T03:25:26.838Z,25.40
2022-08-20T03:30:30.475Z,24.77
2022-08-20T03:35:34.014Z,21.75
2022-08-20T03:40:38.004Z,19.65
2022-08-20T03:45:43.927Z,24.05
2022-08-20T03:50:48.422Z,19.05
2022-08-20T03:55:56.415Z,15.82
2022-08-20T04:01:01.209Z,18.42
2022-08-20T04:06:03.830Z,13.00
2022-08-20T04:11:06.216Z,15.68
2022-08-20T04:16:13.371Z,18.25
2022-08-20T04:21:16.568Z,11.60
2022-08-20T04:26:20.033Z,12.43
2022-08-20T04:31:25.405Z,13.10
2022-08-20T04:36:27.891Z,12.68
2022-08-20T04:41:30.123Z,13.98
2022-08-20T04:46:32.728Z,10.20
2022-08-20T04:51:34.974Z,18.23
2022-08-20T04:56:39.810Z,13.85
2022-08-20T05:01:42.012Z,17.27
2022-08-20T05:06:44.978Z,11.98
2022-08-20T05:11:47.131Z,8.60
2022-08-20T05:16:50.939Z,15.07
2022-08-20T05:21:53.811Z,12.80
2022-08-20T05:26:56.166Z,11.85
2022-08-20T05:31:58.253Z,10.25
2022-08-20T05:37:04.276Z,12.57
2022-08-20T05:42:11.302Z,11.00
2022-08-20T05:47:14.090Z,14.82
2022-08-20T05:52:16.438Z,9.05
2022-08-20T05:57:20.280Z,11.63
2022-08-20T06:02:40.833Z,16.33
2022-08-20T06:07:43.281Z,11.25
2022-08-20T06:12:45.601Z,10.82
2022-08-20T06:17:51.217Z,9.60
2022-08-20T06:23:00.689Z,11.77
2022-08-20T06:28:03.887Z,9.73
2022-08-20T06:33:06.343Z,9.07
2022-08-20T06:38:11.342Z,9.65
2022-08-20T06:43:13.657Z,11.95
2022-08-20T06:48:17.337Z,11.73
2022-08-20T06:53:20.978Z,8.07
2022-08-20T06:58:36.870Z,10.68
2022-08-20T07:03:54.780Z,6.30
2022-08-20T07:08:58.093Z,11.00
2022-08-20T07:14:01.395Z,8.30
2022-08-20T07:19:04.030Z,9.02
2022-08-20T07:24:06.743Z,6.00
2022-08-20T07:29:08.844Z,8.07
2022-08-20T07:34:11.746Z,8.05
2022-08-20T07:39:14.726Z,9.55
2022-08-20T07:44:17.528Z,8.45
2022-08-20T07:49:19.655Z,9.57
2022-08-20T07:54:21.847Z,9.40
2022-08-20T07:59:24.131Z,7.32
2022-08-20T08:04:26.394Z,8.57
2022-08-20T08:09:29.059Z,8.43
2022-08-20T08:14:34.323Z,4.60
2022-08-20T08:19:43.202Z,10.93
2022-08-20T08:24:56.825Z,9.52
2022-08-20T08:30:01.218Z,6.97
2022-08-20T08:35:09.159Z,5.85
2022-08-20T08:40:11.676Z,7.45
2022-08-20T08:45:17.411Z,4.22
2022-08-20T08:50:50.006Z,8.43
2022-08-20T08:55:48.799Z,8.20
2022-08-20T09:00:56.143Z,8.35
2022-08-20T09:06:01.392Z,10.85
2022-08-20T09:11:06.363Z,10.70
2022-08-20T09:16:08.690Z,10.48
2022-08-20T09:21:11.117Z,10.13
2022-08-20T09:26:13.799Z,8.45
2022-08-20T09:31:16.035Z,12.85
2022-08-20T09:36:32.159Z,10.30
2022-08-20T09:41:35.036Z,12.50
2022-08-20T09:46:37.335Z,13.27
2022-08-20T09:51:39.513Z,10.98
2022-08-20T09:56:41.890Z,13.73
2022-08-20T10:01:44.157Z,19.13
2022-08-20T10:06:46.442Z,18.65
2022-08-20T10:11:48.584Z,14.65
2022-08-20T10:16:56.520Z,8.48
2022-08-20T10:22:02.646Z,13.20
2022-08-20T10:27:05.169Z,20.60
2022-08-20T10:32:12.990Z,10.82
2022-08-20T10:37:17.892Z,13.13
2022-08-20T10:42:20.367Z,11.30
2022-08-20T10:47:28.648Z,9.07
2022-08-20T10:52:31.003Z,6.22
2022-08-20T10:57:34.378Z,9.57
2022-08-20T11:02:36.877Z,9.82
2022-08-20T11:07:50.741Z,10.13
2022-08-20T11:13:04.315Z,11.07
2022-08-20T11:18:06.972Z,6.82
2022-08-20T11:23:09.244Z,10.23
2022-08-20T11:28:13.017Z,8.40
2022-08-20T11:33:15.260Z,8.95
2022-08-20T11:38:18.574Z,8.00
2022-08-20T11:43:20.821Z,7.68
2022-08-20T11:48:23.160Z,5.13
2022-08-20T11:53:25.474Z,11.98
2022-08-20T11:58:27.687Z,4.28
2022-08-20T12:03:31.116Z,7.55
2022-08-20T12:08:33.305Z,6.90
2022-08-20T12:13:47.135Z,9.10
2022-08-20T12:18:52.027Z,9.88
2022-08-20T12:23:54.194Z,5.43
2022-08-20T12:28:56.431Z,11.80
2022-08-20T12:33:58.779Z,7.80
2022-08-20T12:39:01.050Z,9.45
2022-08-20T12:44:07.106Z,10.65
2022-08-20T12:49:18.455Z,8.48
2022-08-20T12:54:20.535Z,7.45
2022-08-20T12:59:26.116Z,6.03
2022-08-20T13:04:28.557Z,9.30
2022-08-20T13:09:31.594Z,7.82
2022-08-20T13:14:34.891Z,9.63
2022-08-20T13:19:38.599Z,5.65
2022-08-20T13:24:40.902Z,16.83
2022-08-20T13:29:54.089Z,6.72
2022-08-20T13:35:00.146Z,12.48
2022-08-20T13:40:02.751Z,8.77
2022-08-20T13:45:06.435Z,11.63
2022-08-20T13:50:18.747Z,9.02
2022-08-20T13:55:23.370Z,9.35
2022-08-20T14:00:32.357Z,8.07
2022-08-20T14:05:35.559Z,7.20
2022-08-20T14:10:38.272Z,8.27
2022-08-20T14:15:41.554Z,8.00
2022-08-20T14:20:45.421Z,5.88
2022-08-20T14:25:50.363Z,10.25
2022-08-20T14:30:53.627Z,10.50
2022-08-20T14:35:55.950Z,5.45
2022-08-20T14:40:58.124Z,5.65
2022-08-20T14:46:00.270Z,7.55
2022-08-20T14:51:03.241Z,7.88
2022-08-20T14:56:05.689Z,13.38
2022-08-20T15:01:07.996Z,11.57
2022-08-20T15:06:21.884Z,8.00
2022-08-20T15:11:24.812Z,11.10
2022-08-20T15:16:28.209Z,4.85
2022-08-20T15:21:44.809Z,5.75
2022-08-20T15:26:48.519Z,5.80
2022-08-20T15:31:51.552Z,4.35
2022-08-20T15:36:53.769Z,6.03
2022-08-20T15:41:55.977Z,7.63
2022-08-20T15:47:23.722Z,7.00
2022-08-20T15:52:31.058Z,8.82
2022-08-20T15:58:04.062Z,8.68
2022-08-20T16:03:32.302Z,4.90
2022-08-20T16:09:05.126Z,7.63
2022-08-20T16:14:19.615Z,9.35
2022-08-20T16:19:26.139Z,7.80
2022-08-20T16:24:28.653Z,6.78
2022-08-20T16:30:04.869Z,6.72
2022-08-20T16:35:29.421Z,6.28
2022-08-20T16:40:51.935Z,5.72
2022-08-20T16:46:12.889Z,8.73
2022-08-20T16:51:27.481Z,10.60
2022-08-20T16:56:34.493Z,7.78
2022-08-20T17:01:37.920Z,8.65
2022-08-20T17:06:46.375Z,10.82
2022-08-20T17:11:49.439Z,5.90
2022-08-20T17:16:52.818Z,8.68
2022-08-20T17:21:57.154Z,7.00
2022-08-20T17:27:10.042Z,5.65
2022-08-20T17:32:22.653Z,6.90
2022-08-20T17:37:33.448Z,6.80
2022-08-20T17:42:57.246Z,7.50
2022-08-20T17:48:01.170Z,8.45
2022-08-20T17:53:27.465Z,10.13
2022-08-20T17:58:38.102Z,7.63
2022-08-20T18:03:40.623Z,7.45
2022-08-20T18:08:52.711Z,6.78
2022-08-20T18:14:11.412Z,8.38
2022-08-20T18:19:22.123Z,10.32
2022-08-20T18:24:34.034Z,6.03
2022-08-20T18:34:42.215Z,6.20
2022-08-20T18:39:47.016Z,7.28
2022-08-20T18:44:52.486Z,9.75
2022-08-20T18:50:06.500Z,9.40
2022-08-20T18:55:28.115Z,12.65
2022-08-20T19:00:43.991Z,6.00
2022-08-20T19:05:46.262Z,6.47
2022-08-20T19:11:24.432Z,7.63
2022-08-20T19:16:37.283Z,13.52
2022-08-20T19:21:43.616Z,10.73
2022-08-20T19:26:52.216Z,8.95
2022-08-20T19:32:02.993Z,8.85
2022-08-20T19:37:35.761Z,7.33
2022-08-20T19:42:42.392Z,6.13
2022-08-20T19:48:02.719Z,5.45
2022-08-20T19:53:30.819Z,5.38
2022-08-20T19:58:33.988Z,10.15
2022-08-20T20:03:37.986Z,8.02
2022-08-20T20:08:44.567Z,6.00
2022-08-20T20:13:47.166Z,8.60
2022-08-20T20:19:09.114Z,9.35
2022-08-20T20:24:22.404Z,9.75
2022-08-20T20:29:28.071Z,6.85
2022-08-20T20:34:38.121Z,7.63
2022-08-20T20:40:27.289Z,7.82
2022-08-20T20:45:35.033Z,6.97
2022-08-20T20:50:40.333Z,9.25
2022-08-20T20:55:54.624Z,7.93
2022-08-20T21:00:56.778Z,8.75
2022-08-20T21:05:58.886Z,9.68
2022-08-20T21:11:01.364Z,11.50
2022-08-20T21:16:03.794Z,12.63
2022-08-20T21:21:08.317Z,15.23
2022-08-20T21:26:10.478Z,9.98
2022-08-20T21:31:13.333Z,10.20
2022-08-20T21:36:15.498Z,9.98
2022-08-20T21:41:17.930Z,12.05
2022-08-20T21:46:24.864Z,10.40
2022-08-20T21:51:27.311Z,12.60
2022-08-20T21:56:33.802Z,13.15
2022-08-20T22:01:38.363Z,13.85
2022-08-20T22:06:40.658Z,17.60
2022-08-20T22:11:42.893Z,18.45
2022-08-20T22:16:45.560Z,19.88
2022-08-20T22:21:49.526Z,23.92
2022-08-20T22:26:52.184Z,25.40
2022-08-20T22:31:54.458Z,24.15
2022-08-20T22:36:58.536Z,27.45
2022-08-20T22:42:00.771Z,34.63
2022-08-20T22:47:07.182Z,31.02
2022-08-20T22:52:10.970Z,28.58
2022-08-20T22:57:14.710Z,30.52
2022-08-20T23:02:18.383Z,30.65
2022-08-20T23:07:21.060Z,33.72
2022-08-20T23:12:24.131Z,38.08
2022-08-20T23:17:26.578Z,37.95
2022-08-20T23:22:29.032Z,39.72
2022-08-20T23:27:32.902Z,31.63
2022-08-20T23:32:35.044Z,35.28
2022-08-20T23:37:45.892Z,34.28
2022-08-20T23:42:48.219Z,36.55
2022-08-20T23:47:50.457Z,37.00
2022-08-20T23:52:54.070Z,35.38
2022-08-20T23:57:56.436Z,37.60
